Waverly, AL (36879)

11:30 AM CDT on October 02, 2014 (GMT -0500)
Opelika, AL - Highland Ave. | Change Station
CLOSE
Current Station
Personal Weather Station
Location: Opelika, AL
Elevation: 856 ft
Nearby Weather Stations

Elev 856 ft 32.67 °N, 85.37 °W | Updated 18 seconds ago

Clear
Clear
81.7 °F
Feels Like 83 °F
N
4.3
Wind Variable Wind from ESE
Gusts 4.9 mph

Today
High -- | Low -- °F
--% Chance of Precip.
Yesterday
High -- | Low -- °F
Precip. -- in
6:36 AM 6:25 PM
First Quarter, 60% visible
Pressure 30.13 in
Visibility 10.0 miles
Clouds Mostly Cloudy 12000 ft
Heat Index 83 °F
Dew Point 64 °F
Humidity 55%
Rainfall 0.00 in
Snow Depth Not available.
UV 4 out of 12
Pollen 6.00 out of 12
Air Quality Not available.
Flu Activity Not available.
METAR KAUO 021615Z 18006KT 10SM BKN120 26/17 A3013 RMK AO1

More Conditions Fewer Conditions

Pressure 30.13 in
Visibility 10.0 miles
Clouds Mostly Cloudy 12000 ft
Heat Index 83 °F
Dew Point 64 °F
Humidity 55%
Rainfall 0.00 in
Snow Depth Not available.
UV 4 out of 12
Pollen 6.00 out of 12
Air Quality Not available.
Flu Activity Not available.
METAR KAUO 021615Z 18006KT 10SM BKN120 26/17 A3013 RMK AO1

More Conditions Fewer Conditions

10-Day Weather Forecast

Almanac

Astronomy

Oct. 02, 2014 Rise Set
Actual Time 6:36 AM CDT 6:25 PM CDT
Civil Twilight 6:12 AM CDT 6:50 PM CDT
Nautical Twilight 5:43 AM CDT 7:18 PM CDT
Astronomical Twilight 5:15 AM CDT 7:47 PM CDT
Moon 2:14 PM CDT 12:10 AM CDT
Length of Visible Light 12h 37m
Length of Day
11h 48m
Tomorrow will be 2m 0s shorter.
First Quarter, 60% of the Moon is Illuminated
Today
First Quarter
Oct 8
Full
Oct 15
Last Quarter
Oct 23
New
Oct 30
First Quarter

Today's Extremes

State Highs State Lows

Community

WunderPhotos

Upload Photos

1,758,294 photos uploaded!

WunderBlogs® & News

Nearby

Snow Depth

Station Depth Elevation
No new snow has been reported.

Earthquake Activity

City Distance Mag. Time & Date
No recent earthquake activity has been reported nearby.
Minimum magnitude displayed is 2.5.

Coastal Water Temperatures

Place Temperature
No Stations Reporting

Nearby Weather Stations